Time;durP1;ratioP1;P1;durP2;ratioP2;P2;SDS_P1;SDS_P2;PMS_P1;PMS_P2;Temp;Humidity;BMP_temperature;BMP_pressure;BME280_temperature;BME280_humidity;BME280_pressure;Samples;Min_cycle;Max_cycle;Signal;HPM_P1;HPM_P2
2021/07/18 00:01:45;;;;;;;1999.90;999.90;;;;;;;18.44;44.71;101588.25;4844502;29;100416;-69
2021/07/18 00:04:13;;;;;;;1999.90;999.90;;;;;;;18.39;44.88;101583.75;4831248;29;97631;-69
2021/07/18 00:06:43;;;;;;;1999.90;999.90;;;;;;;18.20;45.45;101596.31;4828829;29;97391;-69
2021/07/18 00:09:13;;;;;;;1999.90;999.90;;;;;;;18.00;45.55;101590.81;4829899;29;97485;-69
2021/07/18 00:11:41;;;;;;;1999.90;999.90;;;;;;;17.85;45.93;101598.84;4829135;29;98935;-69
2021/07/18 00:14:09;;;;;;;1999.90;999.90;;;;;;;17.71;46.12;101597.88;4829389;29;97804;-69
2021/07/18 00:16:38;;;;;;;1999.90;999.90;;;;;;;17.64;46.45;101595.13;4830073;29;96843;-69
2021/07/18 00:19:06;;;;;;;1999.90;999.90;;;;;;;17.64;46.49;101598.72;4831406;29;97878;-69
2021/07/18 00:21:34;;;;;;;1999.90;999.90;;;;;;;17.59;46.37;101597.81;4828975;29;96935;-69
2021/07/18 00:24:02;;;;;;;1999.90;999.90;;;;;;;17.51;46.71;101599.56;4831562;29;97878;-69
2021/07/18 00:26:32;;;;;;;1999.90;999.90;;;;;;;17.51;46.62;101604.94;4828477;29;97203;-69
2021/07/18 00:29:00;;;;;;;1999.90;999.90;;;;;;;17.43;46.62;101595.94;4831012;29;97515;-69
2021/07/18 00:31:27;;;;;;;1999.90;999.90;;;;;;;17.28;47.02;101598.50;4829349;29;99737;-69
2021/07/18 00:33:55;;;;;;;1999.90;999.90;;;;;;;17.27;47.17;101603.88;4826873;29;98716;-69
2021/07/18 00:36:23;;;;;;;1999.90;999.90;;;;;;;17.22;47.20;101606.50;4829210;29;97238;-69
2021/07/18 00:38:51;;;;;;;1999.90;999.90;;;;;;;17.21;47.29;101604.72;4830888;29;97727;-69
2021/07/18 00:41:18;;;;;;;1999.90;999.90;;;;;;;17.23;47.16;101597.56;4829735;29;98024;-69
2021/07/18 00:43:47;;;;;;;1999.90;999.90;;;;;;;17.32;47.24;101600.31;4843658;29;100469;-69
2021/07/18 00:46:15;;;;;;;1999.90;999.90;;;;;;;17.33;46.99;101601.22;4829237;29;97712;-70
2021/07/18 00:48:43;;;;;;;1999.90;999.90;;;;;;;17.34;46.84;101601.22;4845098;29;97362;-69
2021/07/18 00:51:11;;;;;;;1999.90;999.90;;;;;;;17.37;46.79;101600.31;4829537;29;99189;-69
2021/07/18 00:53:39;;;;;;;1999.90;999.90;;;;;;;17.40;46.89;101603.97;4858769;28;97331;-69
2021/07/18 00:56:07;;;;;;;1999.90;999.90;;;;;;;17.48;46.71;101602.25;4829973;29;97192;-69
2021/07/18 00:58:36;;;;;;;1999.90;999.90;;;;;;;17.53;46.43;101602.28;4830891;29;96975;-69
2021/07/18 01:01:05;;;;;;;1999.90;999.90;;;;;;;17.45;46.15;101599.53;4826935;29;100444;-69
2021/07/18 01:03:33;;;;;;;1999.90;999.90;;;;;;;17.41;46.37;101597.72;4830119;29;97560;-69
2021/07/18 01:06:00;;;;;;;1999.90;999.90;;;;;;;17.21;46.71;101587.66;4821217;29;97312;-69
2021/07/18 01:08:28;;;;;;;1999.90;999.90;;;;;;;16.99;47.28;101590.22;4829411;29;97793;-69
2021/07/18 01:10:56;;;;;;;1999.90;999.90;;;;;;;16.80;47.61;101593.63;4828165;29;98506;-69
2021/07/18 01:13:24;;;;;;;1999.90;999.90;;;;;;;16.66;47.64;101602.44;4829120;29;98764;-69
2021/07/18 01:15:52;;;;;;;1999.90;999.90;;;;;;;16.55;47.78;101594.28;4830018;29;98123;-69
2021/07/18 01:18:21;;;;;;;1999.90;999.90;;;;;;;16.48;48.30;101597.78;4830403;29;97090;-69
2021/07/18 01:20:49;;;;;;;1999.90;999.90;;;;;;;16.46;48.23;101609.41;4829805;29;97650;-69
2021/07/18 01:23:18;;;;;;;1999.90;999.90;;;;;;;16.38;48.35;101611.13;4827602;29;98671;-69
2021/07/18 01:25:48;;;;;;;1999.90;999.90;;;;;;;16.40;48.57;101609.31;4828810;29;98090;-69
2021/07/18 01:28:16;;;;;;;1999.90;999.90;;;;;;;16.46;48.26;101606.72;4859715;28;96928;-68
2021/07/18 01:30:44;;;;;;;1999.90;999.90;;;;;;;16.41;48.48;101600.41;4829047;29;100945;-69
2021/07/18 01:33:11;;;;;;;1999.90;999.90;;;;;;;16.31;48.35;101610.16;4827670;29;97966;-69
2021/07/18 01:35:39;;;;;;;1999.90;999.90;;;;;;;16.21;48.40;101610.94;4829185;29;97106;-69
2021/07/18 01:38:08;;;;;;;1999.90;999.90;;;;;;;16.14;48.97;101605.47;4831106;29;97406;-69
2021/07/18 01:40:38;;;;;;;1999.90;999.90;;;;;;;16.14;49.09;101611.75;4860665;28;99310;-70
2021/07/18 01:43:06;;;;;;;1999.90;999.90;;;;;;;16.09;48.83;101614.38;4843200;29;98840;-69
2021/07/18 01:45:34;;;;;;;1999.90;999.90;;;;;;;16.06;48.98;101616.13;4827309;29;97859;-69
2021/07/18 01:48:02;;;;;;;1999.90;999.90;;;;;;;16.04;49.08;101615.22;4829411;29;97519;-69
2021/07/18 01:50:31;;;;;;;1999.90;999.90;;;;;;;15.92;49.12;101602.50;4829315;29;97667;-69
2021/07/18 01:53:00;;;;;;;1999.90;999.90;;;;;;;15.89;49.23;101612.28;4829499;29;98212;-69
2021/07/18 01:55:28;;;;;;;1999.90;999.90;;;;;;;15.76;49.55;101613.91;4830071;29;97745;-69
2021/07/18 01:57:58;;;;;;;1999.90;999.90;;;;;;;15.69;49.19;101614.72;4829643;29;98328;-69
2021/07/18 02:00:26;;;;;;;1999.90;999.90;;;;;;;15.57;49.74;101611.88;4827142;29;99475;-69
2021/07/18 02:02:54;;;;;;;1999.90;999.90;;;;;;;15.47;50.17;101611.72;4855920;28;97992;-69
2021/07/18 02:05:22;;;;;;;1999.90;999.90;;;;;;;15.35;50.31;101607.09;4858144;28;96782;-69
2021/07/18 02:07:54;;;;;;;1999.90;999.90;;;;;;;15.34;50.56;101609.75;4828483;29;97568;-69
2021/07/18 02:10:23;;;;;;;1999.90;999.90;;;;;;;15.41;50.23;101599.13;4828461;29;99341;-69
2021/07/18 02:12:51;;;;;;;1999.90;999.90;;;;;;;15.43;49.96;101605.41;4829544;29;97990;-69
2021/07/18 02:15:21;;;;;;;1999.90;999.90;;;;;;;15.43;49.99;101602.72;4859027;28;97087;-69
2021/07/18 02:17:48;;;;;;;1999.90;999.90;;;;;;;15.52;50.27;101613.59;4833788;29;96971;-69
2021/07/18 02:20:18;;;;;;;1999.90;999.90;;;;;;;15.60;50.17;101611.91;4834108;29;97867;-70
2021/07/18 02:22:48;;;;;;;1999.90;999.90;;;;;;;15.72;49.92;101601.34;4847544;29;97977;-69
2021/07/18 02:25:17;;;;;;;1999.90;999.90;;;;;;;15.83;49.71;101610.44;4834127;29;96999;-69
2021/07/18 02:27:46;;;;;;;1999.90;999.90;;;;;;;15.93;49.24;101607.00;4865012;28;97006;-70
2021/07/18 02:30:17;;;;;;;1999.90;999.90;;;;;;;15.95;49.11;101610.59;4863636;28;97782;-69
2021/07/18 02:32:46;;;;;;;1999.90;999.90;;;;;;;15.95;48.91;101613.28;4835034;29;98707;-69
2021/07/18 02:35:15;;;;;;;1999.90;999.90;;;;;;;16.01;48.77;101609.81;4830963;29;96792;-69
2021/07/18 02:37:44;;;;;;;1999.90;999.90;;;;;;;15.97;48.64;101610.63;4832298;29;97414;-70
2021/07/18 02:40:12;;;;;;;1999.90;999.90;;;;;;;15.90;49.21;101606.94;4830281;29;99364;-69
2021/07/18 02:42:41;;;;;;;1999.90;999.90;;;;;;;15.77;49.39;101604.09;4832409;29;97694;-69
2021/07/18 02:45:10;;;;;;;1999.90;999.90;;;;;;;15.65;49.32;101601.25;4830927;29;97000;-69
2021/07/18 02:47:39;;;;;;;1999.90;999.90;;;;;;;15.64;49.60;101607.50;4846900;29;97102;-69
2021/07/18 02:50:09;;;;;;;1999.90;999.90;;;;;;;15.66;49.80;101600.38;4831783;29;98954;-69
2021/07/18 02:52:37;;;;;;;1999.90;999.90;;;;;;;15.70;49.33;101603.09;4832344;29;98792;-69
2021/07/18 02:55:05;;;;;;;1999.90;999.90;;;;;;;15.68;49.69;101601.28;4831681;29;96922;-69
2021/07/18 02:57:33;;;;;;;1999.90;999.90;;;;;;;15.68;49.67;101602.22;4830416;29;98324;-70
2021/07/18 03:00:01;;;;;;;1999.90;999.90;;;;;;;15.74;49.42;101606.75;4831409;29;98764;-69
2021/07/18 03:02:29;;;;;;;1999.90;999.90;;;;;;;15.73;49.66;101597.78;4831528;29;97801;-69
2021/07/18 03:04:57;;;;;;;1999.90;999.90;;;;;;;15.73;49.61;101607.63;4841146;29;97980;-69
2021/07/18 03:07:26;;;;;;;1999.90;999.90;;;;;;;15.62;49.88;101604.78;4829618;29;99887;-69
2021/07/18 03:09:54;;;;;;;1999.90;999.90;;;;;;;15.57;49.91;101598.47;4830379;29;98699;-69
2021/07/18 03:12:21;;;;;;;1999.90;999.90;;;;;;;15.54;49.64;101600.22;4829497;29;99391;-69
2021/07/18 03:14:49;;;;;;;1999.90;999.90;;;;;;;15.47;49.92;101596.53;4830490;29;97329;-69
2021/07/18 03:17:17;;;;;;;1999.90;999.90;;;;;;;15.48;50.20;101601.03;4832732;29;96960;-69
2021/07/18 03:19:45;;;;;;;1999.90;999.90;;;;;;;15.43;49.91;101597.34;4831008;29;98912;-69
2021/07/18 03:22:13;;;;;;;1999.90;999.90;;;;;;;15.40;50.24;101596.41;4831665;29;97627;-69
2021/07/18 03:24:42;;;;;;;1999.90;999.90;;;;;;;15.35;50.19;101596.38;4830103;29;97788;-69
2021/07/18 03:27:09;;;;;;;1999.90;999.90;;;;;;;15.38;50.04;101599.09;4831611;29;97023;-69
2021/07/18 03:29:37;;;;;;;1999.90;999.90;;;;;;;15.30;50.19;101600.78;4832391;29;97045;-69
2021/07/18 03:32:06;;;;;;;1999.90;999.90;;;;;;;15.18;50.45;101595.16;4844655;29;98865;-69
2021/07/18 03:34:34;;;;;;;1999.90;999.90;;;;;;;15.13;50.74;101599.56;4831358;29;97238;-69
2021/07/18 03:37:02;;;;;;;1999.90;999.90;;;;;;;15.07;51.20;101595.00;4830188;29;97315;-69
2021/07/18 03:39:29;;;;;;;1999.90;999.90;;;;;;;14.94;51.01;101598.38;4831139;29;97712;-69
2021/07/18 03:41:58;;;;;;;1999.90;999.90;;;;;;;14.84;51.65;101600.88;4831967;29;98207;-69
2021/07/18 03:44:27;;;;;;;1999.90;999.90;;;;;;;14.82;51.77;101605.31;4831416;29;96885;-69
2021/07/18 03:46:55;;;;;;;1999.90;999.90;;;;;;;14.81;51.68;101612.44;4831125;28;97169;-69
2021/07/18 03:49:22;;;;;;;1999.90;999.90;;;;;;;14.81;51.82;101608.88;4831078;29;97325;-69
2021/07/18 03:51:50;;;;;;;1999.90;999.90;;;;;;;14.79;51.94;101606.16;4831802;29;98081;-69
2021/07/18 03:54:18;;;;;;;1999.90;999.90;;;;;;;14.81;51.90;101607.06;4860828;28;98944;-69
2021/07/18 03:56:46;;;;;;;1999.90;999.90;;;;;;;14.79;52.03;101606.16;4831073;29;97456;-69
2021/07/18 03:59:15;;;;;;;1999.90;999.90;;;;;;;14.73;51.98;101608.75;4814144;29;99991;-69
2021/07/18 04:01:42;;;;;;;1999.90;999.90;;;;;;;14.71;52.26;101613.19;4825662;29;97820;-68
2021/07/18 04:04:10;;;;;;;1999.90;999.90;;;;;;;14.71;52.36;101604.22;4855555;28;97285;-70
2021/07/18 04:06:38;;;;;;;1999.90;999.90;;;;;;;14.71;52.39;101606.91;4857908;28;97382;-69
2021/07/18 04:09:06;;;;;;;1999.90;999.90;;;;;;;14.67;52.08;101605.94;4829888;29;98801;-69
2021/07/18 04:11:33;;;;;;;1999.90;999.90;;;;;;;14.64;52.58;101605.91;4830776;29;96901;-69
2021/07/18 04:14:01;;;;;;;1999.90;999.90;;;;;;;14.60;52.47;101609.41;4830749;29;97159;-69
2021/07/18 04:16:30;;;;;;;1999.90;999.90;;;;;;;14.52;52.89;101604.72;4828951;29;97829;-70
2021/07/18 04:18:58;;;;;;;1999.90;999.90;;;;;;;14.52;52.71;101602.03;4830906;29;97774;-69
2021/07/18 04:21:26;;;;;;;1999.90;999.90;;;;;;;14.56;52.71;101601.28;4831622;29;97552;-69
2021/07/18 04:23:53;;;;;;;1999.90;999.90;;;;;;;14.56;52.93;101593.22;4844806;29;97824;-69
2021/07/18 04:26:21;;;;;;;1999.90;999.90;;;;;;;14.58;53.16;101604.88;4830632;29;96968;-69
2021/07/18 04:28:49;;;;;;;1999.90;999.90;;;;;;;14.64;53.14;101600.56;4829179;29;98726;-69
2021/07/18 04:31:17;;;;;;;1999.90;999.90;;;;;;;14.74;52.68;101606.94;4831074;29;98891;-69
2021/07/18 04:33:48;;;;;;;1999.90;999.90;;;;;;;14.77;52.77;101598.97;4859592;28;97641;-69
2021/07/18 04:36:16;;;;;;;1999.90;999.90;;;;;;;14.88;52.69;101608.09;4830939;29;96987;-68
2021/07/18 04:38:43;;;;;;;1999.90;999.90;;;;;;;14.99;52.24;101611.88;4829523;29;97481;-69
2021/07/18 04:41:11;;;;;;;1999.90;999.90;;;;;;;15.10;51.92;101602.22;4829496;29;98070;-69
2021/07/18 04:43:39;;;;;;;1999.90;999.90;;;;;;;15.21;51.54;101608.63;4830594;29;96825;-69
2021/07/18 04:46:07;;;;;;;1999.90;999.90;;;;;;;15.24;51.67;101611.34;4830410;29;97503;-69
2021/07/18 04:48:35;;;;;;;1999.90;999.90;;;;;;;15.23;51.47;101603.31;4860271;28;98903;-69
2021/07/18 04:51:04;;;;;;;1999.90;999.90;;;;;;;15.16;51.65;101596.03;4828361;29;100751;-69
2021/07/18 04:53:32;;;;;;;1999.90;999.90;;;;;;;15.11;52.05;101606.69;4831144;29;97250;-69
2021/07/18 04:55:59;;;;;;;1999.90;999.90;;;;;;;15.14;51.61;101598.69;4830616;29;97526;-69
2021/07/18 04:58:27;;;;;;;1999.90;999.90;;;;;;;15.17;51.71;101604.09;4830164;29;98133;-69
2021/07/18 05:00:55;;;;;;;1999.90;999.90;;;;;;;15.17;51.73;101602.31;4830501;29;98924;-69
2021/07/18 05:03:22;;;;;;;1999.90;999.90;;;;;;;15.23;51.55;101598.81;4843874;29;97912;-69
2021/07/18 05:05:50;;;;;;;1999.90;999.90;;;;;;;15.33;51.41;101613.31;4824115;29;97450;-68
2021/07/18 05:08:20;;;;;;;1999.90;999.90;;;;;;;15.32;51.75;101611.53;4827617;29;98896;-68
2021/07/18 05:10:48;;;;;;;1999.90;999.90;;;;;;;15.36;51.88;101618.69;4829043;29;96945;-69
2021/07/18 05:13:16;;;;;;;1999.90;999.90;;;;;;;15.37;51.64;101618.75;4827072;29;97780;-69
2021/07/18 05:15:44;;;;;;;1999.90;999.90;;;;;;;15.42;51.35;101619.72;4828697;29;97006;-68
2021/07/18 05:18:13;;;;;;;1999.90;999.90;;;;;;;15.48;51.74;101621.59;4830757;29;99018;-69
2021/07/18 05:20:41;;;;;;;1999.90;999.90;;;;;;;15.52;51.12;101626.13;4828868;29;98404;-69
2021/07/18 05:23:10;;;;;;;1999.90;999.90;;;;;;;15.50;51.09;101626.06;4859983;28;97152;-69
2021/07/18 05:25:39;;;;;;;1999.90;999.90;;;;;;;15.58;51.05;101629.78;4830147;29;97327;-69
2021/07/18 05:28:07;;;;;;;1999.90;999.90;;;;;;;15.68;51.20;101621.00;4830130;29;97235;-69
2021/07/18 05:30:35;;;;;;;1999.90;999.90;;;;;;;15.76;50.92;101624.66;4858201;28;99266;-69
2021/07/18 05:33:03;;;;;;;1999.90;999.90;;;;;;;15.85;50.53;101630.16;4830528;29;96797;-69
2021/07/18 05:35:31;;;;;;;1999.90;999.90;;;;;;;15.91;50.54;101629.31;4829697;29;97616;-69
2021/07/18 05:37:59;;;;;;;1999.90;999.90;;;;;;;15.97;50.69;101630.31;4827653;29;99385;-69
2021/07/18 05:40:26;;;;;;;1999.90;999.90;;;;;;;15.98;50.10;101632.09;4843987;29;99116;-69
2021/07/18 05:42:56;;;;;;;1999.90;999.90;;;;;;;16.02;50.23;101634.00;4830501;29;96990;-69
2021/07/18 05:45:23;;;;;;;1999.90;999.90;;;;;;;16.06;49.93;101635.84;4829726;29;96940;-70
2021/07/18 05:47:51;;;;;;;1999.90;999.90;;;;;;;16.14;50.19;101635.03;4828681;29;97460;-69
2021/07/18 05:50:19;;;;;;;1999.90;999.90;;;;;;;16.22;49.93;101636.00;4829939;29;97984;-69
2021/07/18 05:52:47;;;;;;;1999.90;999.90;;;;;;;16.28;49.31;101639.66;4831882;29;97971;-69
2021/07/18 05:55:15;;;;;;;1999.90;999.90;;;;;;;16.33;49.55;101639.69;4832413;29;97191;-70
2021/07/18 05:57:43;;;;;;;1999.90;999.90;;;;;;;16.37;48.94;101646.91;4832435;29;97961;-69
2021/07/18 06:00:14;;;;;;;1999.90;999.90;;;;;;;16.40;49.13;101646.94;4833586;29;97194;-69
2021/07/18 06:02:42;;;;;;;1999.90;999.90;;;;;;;16.41;48.70;101654.13;4833102;29;97048;-69
2021/07/18 06:05:11;;;;;;;1999.90;999.90;;;;;;;16.43;48.73;101652.38;4831552;29;97111;-69
2021/07/18 06:07:39;;;;;;;1999.90;999.90;;;;;;;16.46;48.62;101642.56;4847154;29;99316;-69
2021/07/18 06:10:09;;;;;;;1999.90;999.90;;;;;;;16.49;48.78;101642.56;4833532;29;97572;-69
2021/07/18 06:12:37;;;;;;;1999.90;999.90;;;;;;;16.52;48.66;101648.00;4861921;28;96934;-69
2021/07/18 06:15:06;;;;;;;1999.90;999.90;;;;;;;16.55;48.42;101645.34;4831839;29;96930;-69
2021/07/18 06:17:37;;;;;;;1999.90;999.90;;;;;;;16.55;48.64;101647.13;4832943;29;97844;-69
2021/07/18 06:20:07;;;;;;;1999.90;999.90;;;;;;;16.60;48.37;101650.75;4861480;28;97301;-69
2021/07/18 06:22:35;;;;;;;1999.90;999.90;;;;;;;16.65;48.52;101647.22;4831290;29;97307;-69
2021/07/18 06:25:04;;;;;;;1999.90;999.90;;;;;;;16.71;48.16;101644.63;4830823;29;96975;-69
2021/07/18 06:27:33;;;;;;;1999.90;999.90;;;;;;;16.74;48.10;101649.16;4833224;29;96988;-69
2021/07/18 06:30:00;;;;;;;1999.90;999.90;;;;;;;16.76;48.06;101647.38;4830069;29;99210;-70
2021/07/18 06:32:29;;;;;;;1999.90;999.90;;;;;;;16.78;47.93;101662.63;4833195;29;97073;-70
2021/07/18 06:34:58;;;;;;;1999.90;999.90;;;;;;;16.76;47.68;101652.75;4832651;29;97149;-69
2021/07/18 06:37:26;;;;;;;1999.90;999.90;;;;;;;16.75;47.53;101654.53;4830229;29;99518;-69
2021/07/18 06:39:54;;;;;;;1999.90;999.90;;;;;;;16.79;47.73;101655.47;4862963;28;100028;-70
2021/07/18 06:42:22;;;;;;;1999.90;999.90;;;;;;;16.84;47.82;101654.63;4831278;29;98253;-70
2021/07/18 06:44:49;;;;;;;1999.90;999.90;;;;;;;16.89;47.72;101651.94;4834033;29;97412;-70
2021/07/18 06:47:17;;;;;;;1999.90;999.90;;;;;;;16.91;47.71;101648.41;4833690;29;97839;-69
2021/07/18 06:49:45;;;;;;;1999.90;999.90;;;;;;;16.95;47.44;101658.31;4832908;29;97777;-69
2021/07/18 06:52:15;;;;;;;1999.90;999.90;;;;;;;16.99;47.37;101659.22;4831382;29;97391;-69
2021/07/18 06:54:43;;;;;;;1999.90;999.90;;;;;;;17.02;47.59;101657.47;4832763;29;97015;-69
2021/07/18 06:57:11;;;;;;;1999.90;999.90;;;;;;;17.06;47.45;101655.69;4847016;29;100403;-69
2021/07/18 06:59:38;;;;;;;1999.90;999.90;;;;;;;17.11;47.31;101648.56;4834107;29;97453;-69
2021/07/18 07:02:06;;;;;;;1999.90;999.90;;;;;;;17.16;47.14;101644.16;4829727;29;97415;-69
2021/07/18 07:04:35;;;;;;;1999.90;999.90;;;;;;;17.20;46.91;101650.44;4833054;29;97040;-69
2021/07/18 07:07:04;;;;;;;1999.90;999.90;;;;;;;17.24;46.96;101652.25;4826006;29;97774;-69
2021/07/18 07:09:33;;;;;;;1999.90;999.90;;;;;;;17.30;46.86;101645.13;4830138;29;99802;-69
2021/07/18 07:12:01;;;;;;;1999.90;999.90;;;;;;;17.37;46.73;101655.06;4829519;29;97267;-69
2021/07/18 07:14:29;;;;;;;1999.90;999.90;;;;;;;17.39;46.36;101647.94;4860154;28;97251;-69
2021/07/18 07:16:57;;;;;;;1999.90;999.90;;;;;;;17.44;46.28;101656.00;4829539;29;101011;-69
2021/07/18 07:19:25;;;;;;;1999.90;999.90;;;;;;;17.47;46.23;101653.38;4832365;29;97774;-69
2021/07/18 07:21:52;;;;;;;1999.90;999.90;;;;;;;17.50;46.08;101651.59;4828461;29;97361;-69
2021/07/18 07:24:20;;;;;;;1999.90;999.90;;;;;;;17.56;45.93;101645.34;4843146;29;97311;-69
2021/07/18 07:26:49;;;;;;;1999.90;999.90;;;;;;;17.60;45.95;101647.19;4828891;29;98076;-69
2021/07/18 07:29:17;;;;;;;1999.90;999.90;;;;;;;17.65;45.69;101643.63;4829728;29;99048;-69
2021/07/18 07:31:44;;;;;;;1999.90;999.90;;;;;;;17.68;45.60;101634.63;4829387;29;97197;-69
2021/07/18 07:34:12;;;;;;;1999.90;999.90;;;;;;;17.71;45.41;101635.56;4827635;29;97809;-69
2021/07/18 07:36:40;;;;;;;1999.90;999.90;;;;;;;17.69;45.43;101637.34;4827777;29;99362;-69
2021/07/18 07:39:08;;;;;;;1999.90;999.90;;;;;;;17.64;45.55;101639.09;4829379;29;97862;-69
2021/07/18 07:41:36;;;;;;;1999.90;999.90;;;;;;;17.60;45.31;101633.72;4829739;29;97241;-69
2021/07/18 07:44:05;;;;;;;1999.90;999.90;;;;;;;17.60;45.53;101631.91;4826301;29;97868;-69
2021/07/18 07:46:33;;;;;;;1999.90;999.90;;;;;;;17.67;45.59;101638.25;4858227;28;97848;-69
2021/07/18 07:49:01;;;;;;;1999.90;999.90;;;;;;;17.71;45.62;101640.94;4829836;29;99004;-69
2021/07/18 07:51:29;;;;;;;1999.90;999.90;;;;;;;17.71;45.43;101638.25;4829722;29;97143;-69
2021/07/18 07:53:57;;;;;;;1999.90;999.90;;;;;;;17.72;45.33;101641.84;4827370;29;97350;-69
2021/07/18 07:56:24;;;;;;;1999.90;999.90;;;;;;;17.74;45.26;101638.28;4828724;29;97646;-69
2021/07/18 07:58:52;;;;;;;1999.90;999.90;;;;;;;17.77;45.05;101632.00;4829668;29;97561;-69
2021/07/18 08:01:21;;;;;;;1999.90;999.90;;;;;;;17.84;45.20;101623.03;4857393;28;96880;-69
2021/07/18 08:03:49;;;;;;;1999.90;999.90;;;;;;;17.89;44.84;101613.22;4829259;29;97318;-69
2021/07/18 08:06:17;;;;;;;1999.90;999.90;;;;;;;17.96;44.78;101617.72;4827248;29;99168;-69
2021/07/18 08:08:45;;;;;;;1999.90;999.90;;;;;;;18.00;44.47;101616.84;4843312;29;96888;-69
2021/07/18 08:11:13;;;;;;;1999.90;999.90;;;;;;;18.02;44.47;101620.47;4856945;28;97335;-69
2021/07/18 08:13:41;;;;;;;1999.90;999.90;;;;;;;18.06;44.39;101613.31;4829717;29;98339;-69
2021/07/18 08:16:08;;;;;;;1999.90;999.90;;;;;;;18.11;44.51;101612.44;4827643;29;98226;-69
2021/07/18 08:18:38;;;;;;;1999.90;999.90;;;;;;;18.17;44.39;101614.25;4842637;29;97934;-69
2021/07/18 08:21:06;;;;;;;1999.90;999.90;;;;;;;18.21;44.36;101616.03;4825144;29;97443;-69
2021/07/18 08:23:34;;;;;;;1999.90;999.90;;;;;;;18.28;43.88;101607.06;4841795;29;97541;-71
2021/07/18 08:26:02;;;;;;;1999.90;999.90;;;;;;;18.34;44.04;101609.78;4826522;29;100971;-69
2021/07/18 08:28:30;;;;;;;1999.90;999.90;;;;;;;18.36;43.98;101616.09;4827270;29;98002;-69
2021/07/18 08:30:58;;;;;;;1999.90;999.90;;;;;;;18.38;44.16;101603.53;4825994;29;97267;-69
2021/07/18 08:33:26;;;;;;;1999.90;999.90;;;;;;;18.43;43.69;101612.50;4827016;29;97081;-69
2021/07/18 08:35:56;;;;;;;1999.90;999.90;;;;;;;18.47;43.74;101606.25;4826869;29;99564;-69
2021/07/18 08:38:23;;;;;;;1999.90;999.90;;;;;;;18.53;43.76;101608.94;4834831;28;98713;-69
2021/07/18 08:40:52;;;;;;;1999.90;999.90;;;;;;;18.55;43.32;101604.47;4842354;29;97143;-70
2021/07/18 08:43:40;;;;;;;1999.90;999.90;;;;;;;18.61;43.55;101609.84;4828499;29;97902;-70
2021/07/18 08:46:08;;;;;;;1999.90;999.90;;;;;;;18.64;43.28;101604.47;4826094;29;99672;-69
2021/07/18 08:48:36;;;;;;;1999.90;999.90;;;;;;;18.68;43.28;101600.84;4827624;29;97575;-70
2021/07/18 08:51:05;;;;;;;1999.90;999.90;;;;;;;18.71;43.35;101603.63;4826517;29;97424;-70
2021/07/18 08:53:33;;;;;;;1999.90;999.90;;;;;;;18.72;43.36;101606.31;4828413;29;96875;-69
2021/07/18 08:56:01;;;;;;;1999.90;999.90;;;;;;;18.74;43.15;101609.00;4825351;29;97372;-70
2021/07/18 08:58:29;;;;;;;1999.90;999.90;;;;;;;18.77;43.48;101611.69;4828504;29;97927;-69
2021/07/18 09:00:57;;;;;;;1999.90;999.90;;;;;;;18.81;43.49;101608.09;4811474;29;97258;-69
2021/07/18 09:03:29;;;;;;;1999.90;999.90;;;;;;;18.83;43.42;101606.31;4857180;28;97125;-68
2021/07/18 09:06:08;;;;;;;1999.90;999.90;;;;;;;18.86;43.29;101599.09;4827510;29;97053;-68
2021/07/18 09:08:42;;;;;;;1999.90;999.90;;;;;;;18.92;42.87;101598.22;4820853;29;98060;-68
2021/07/18 09:11:17;;;;;;;1999.90;999.90;;;;;;;18.95;43.40;101592.84;4826546;29;97960;-69
2021/07/18 09:13:55;;;;;;;1999.90;999.90;;;;;;;18.97;42.89;101591.00;4826115;29;97019;-69
2021/07/18 09:16:31;;;;;;;1999.90;999.90;;;;;;;18.97;42.83;101585.59;4855247;28;98048;-69
2021/07/18 09:19:20;;;;;;;1999.90;999.90;;;;;;;19.00;43.27;101593.72;4826682;29;100105;-69
2021/07/18 09:22:14;;;;;;;1999.90;999.90;;;;;;;19.01;43.26;101593.72;4841872;29;97067;-70
2021/07/18 09:24:45;;;;;;;1999.90;999.90;;;;;;;19.01;42.88;101590.09;4824820;29;97123;-69
2021/07/18 09:27:16;;;;;;;1999.90;999.90;;;;;;;19.02;42.83;101584.72;4827480;29;98741;-69
2021/07/18 09:29:46;;;;;;;1999.90;999.90;;;;;;;19.05;42.78;101589.22;4828573;29;99473;-69
2021/07/18 09:32:16;;;;;;;1999.90;999.90;;;;;;;19.06;42.49;101576.63;4825993;29;97893;-69
2021/07/18 09:34:45;;;;;;;1999.90;999.90;;;;;;;19.09;42.84;101590.09;4825895;29;97886;-69
2021/07/18 09:37:24;;;;;;;1999.90;999.90;;;;;;;19.11;42.57;101583.81;4827349;29;97720;-70
2021/07/18 09:39:57;;;;;;;1999.90;999.90;;;;;;;19.14;42.57;101577.50;4828149;29;97582;-69
2021/07/18 09:42:30;;;;;;;1999.90;999.90;;;;;;;19.18;42.67;101577.50;4827784;29;97023;-70
2021/07/18 09:44:58;;;;;;;1999.90;999.90;;;;;;;19.23;42.05;101582.88;4826443;29;97486;-69
2021/07/18 09:47:26;;;;;;;1999.90;999.90;;;;;;;19.26;42.19;101585.59;4825365;29;99796;-70
2021/07/18 09:49:54;;;;;;;1999.90;999.90;;;;;;;19.27;42.07;101590.97;4827558;29;98928;-70
2021/07/18 09:52:26;;;;;;;1999.90;999.90;;;;;;;19.26;42.11;101589.19;4855408;28;97276;-69
2021/07/18 09:54:55;;;;;;;1999.90;999.90;;;;;;;19.30;41.93;101579.28;4827446;29;96973;-70
2021/07/18 09:57:34;;;;;;;1999.90;999.90;;;;;;;19.33;42.09;101580.22;4825865;29;101201;-69
2021/07/18 10:00:06;;;;;;;1999.90;999.90;;;;;;;19.35;41.69;101583.81;4825968;29;97004;-70
2021/07/18 10:02:34;;;;;;;1999.90;999.90;;;;;;;19.39;41.99;101573.91;4827447;29;97269;-69
2021/07/18 10:05:03;;;;;;;1999.90;999.90;;;;;;;19.41;42.26;101575.69;4825174;29;97715;-70
2021/07/18 10:07:35;;;;;;;1999.90;999.90;;;;;;;19.45;41.90;101576.56;4827560;29;97849;-69
2021/07/18 10:10:06;;;;;;;1999.90;999.90;;;;;;;19.49;41.62;101579.28;4826716;29;98080;-69
2021/07/18 10:12:34;;;;;;;1999.90;999.90;;;;;;;19.54;41.68;101580.16;4825877;29;97305;-70
2021/07/18 10:15:04;;;;;;;1999.90;999.90;;;;;;;19.57;41.22;101574.72;4825538;29;96975;-70
2021/07/18 10:17:31;;;;;;;1999.90;999.90;;;;;;;19.58;40.83;101571.13;4826253;29;97845;-71
2021/07/18 10:19:59;;;;;;;1999.90;999.90;;;;;;;19.61;41.36;101581.03;4841966;29;100420;-69
2021/07/18 10:22:27;;;;;;;1999.90;999.90;;;;;;;19.63;40.79;101572.00;4857223;28;97374;-70
2021/07/18 10:24:56;;;;;;;1999.90;999.90;;;;;;;19.64;40.86;101562.13;4825577;29;97698;-70
2021/07/18 10:27:24;;;;;;;1999.90;999.90;;;;;;;19.68;40.90;101569.31;4838807;29;98054;-69
2021/07/18 10:29:53;;;;;;;1999.90;999.90;;;;;;;19.74;41.16;101571.97;4826810;29;97879;-70
2021/07/18 10:32:24;;;;;;;1999.90;999.90;;;;;;;19.78;40.90;101569.25;4826925;29;99019;-69
2021/07/18 10:34:56;;;;;;;1999.90;999.90;;;;;;;19.82;41.00;101562.03;4825513;29;96807;-69
2021/07/18 10:37:25;;;;;;;1999.90;999.90;;;;;;;19.85;40.84;101556.59;4827083;29;97960;-69
2021/07/18 10:39:54;;;;;;;1999.90;999.90;;;;;;;19.87;40.73;101555.72;4813307;29;99348;-70
2021/07/18 10:42:34;;;;;;;1999.90;999.90;;;;;;;19.89;41.12;101555.69;4828637;29;97788;-70
2021/07/18 10:45:17;;;;;;;1999.90;999.90;;;;;;;19.93;40.97;101553.03;4829037;29;96989;-69
2021/07/18 10:47:58;;;;;;;1999.90;999.90;;;;;;;19.93;40.49;101550.31;4828663;29;99018;-70
2021/07/18 10:50:49;;;;;;;1999.90;999.90;;;;;;;19.98;40.91;101545.78;4829704;29;98878;-70
2021/07/18 10:53:18;;;;;;;1999.90;999.90;;;;;;;20.05;40.54;101548.47;4829187;29;96863;-70
2021/07/18 10:55:46;;;;;;;1999.90;999.90;;;;;;;20.09;40.75;101553.81;4829312;29;96929;-70